sensor_id;sensor_type;location;lat;lon;timestamp;P1;P2;P0
70915;PMS5003;58557;50.982;-3.222;2023-09-19T00:02:09;5;4;
70915;PMS5003;58557;50.982;-3.222;2023-09-19T00:04:34;7;5;
70915;PMS5003;58557;50.982;-3.222;2023-09-19T00:07:00;5;3;
70915;PMS5003;58557;50.982;-3.222;2023-09-19T00:09:25;7;5;
70915;PMS5003;58557;50.982;-3.222;2023-09-19T00:11:51;5;3;
70915;PMS5003;58557;50.982;-3.222;2023-09-19T00:14:17;12;7;
70915;PMS5003;58557;50.982;-3.222;2023-09-19T00:16:42;6;5;
70915;PMS5003;58557;50.982;-3.222;2023-09-19T00:19:08;8;4;
70915;PMS5003;58557;50.982;-3.222;2023-09-19T00:21:34;6;2;
70915;PMS5003;58557;50.982;-3.222;2023-09-19T00:23:59;8;5;
70915;PMS5003;58557;50.982;-3.222;2023-09-19T00:26:25;4;4;
70915;PMS5003;58557;50.982;-3.222;2023-09-19T00:28:52;7;5;
70915;PMS5003;58557;50.982;-3.222;2023-09-19T00:31:16;3;2;
70915;PMS5003;58557;50.982;-3.222;2023-09-19T00:33:42;4;3;
70915;PMS5003;58557;50.982;-3.222;2023-09-19T00:36:07;7;4;
70915;PMS5003;58557;50.982;-3.222;2023-09-19T00:38:33;5;4;
70915;PMS5003;58557;50.982;-3.222;2023-09-19T00:40:59;5;5;
70915;PMS5003;58557;50.982;-3.222;2023-09-19T00:43:24;6;4;
70915;PMS5003;58557;50.982;-3.222;2023-09-19T00:45:50;5;3;
70915;PMS5003;58557;50.982;-3.222;2023-09-19T00:48:15;4;3;
70915;PMS5003;58557;50.982;-3.222;2023-09-19T00:50:41;5;3;
70915;PMS5003;58557;50.982;-3.222;2023-09-19T00:53:06;9;8;
70915;PMS5003;58557;50.982;-3.222;2023-09-19T00:55:32;6;2;
70915;PMS5003;58557;50.982;-3.222;2023-09-19T00:57:57;8;8;
70915;PMS5003;58557;50.982;-3.222;2023-09-19T01:00:22;12;5;
70915;PMS5003;58557;50.982;-3.222;2023-09-19T01:02:48;8;5;
70915;PMS5003;58557;50.982;-3.222;2023-09-19T01:05:14;3;3;
70915;PMS5003;58557;50.982;-3.222;2023-09-19T01:07:39;4;3;
70915;PMS5003;58557;50.982;-3.222;2023-09-19T01:10:05;10;4;
70915;PMS5003;58557;50.982;-3.222;2023-09-19T01:12:33;8;5;
70915;PMS5003;58557;50.982;-3.222;2023-09-19T01:14:59;5;4;
70915;PMS5003;58557;50.982;-3.222;2023-09-19T01:17:23;4;4;
70915;PMS5003;58557;50.982;-3.222;2023-09-19T01:22:13;3;3;
70915;PMS5003;58557;50.982;-3.222;2023-09-19T01:27:09;5;4;
70915;PMS5003;58557;50.982;-3.222;2023-09-19T01:29:33;7;5;
70915;PMS5003;58557;50.982;-3.222;2023-09-19T01:31:56;4;3;
70915;PMS5003;58557;50.982;-3.222;2023-09-19T01:34:21;6;4;
70915;PMS5003;58557;50.982;-3.222;2023-09-19T01:36:46;5;3;
70915;PMS5003;58557;50.982;-3.222;2023-09-19T01:39:11;7;3;
70915;PMS5003;58557;50.982;-3.222;2023-09-19T01:41:39;8;6;
70915;PMS5003;58557;50.982;-3.222;2023-09-19T01:44:02;6;6;
70915;PMS5003;58557;50.982;-3.222;2023-09-19T01:46:29;5;5;
70915;PMS5003;58557;50.982;-3.222;2023-09-19T01:48:56;9;4;
70915;PMS5003;58557;50.982;-3.222;2023-09-19T01:51:19;6;3;
70915;PMS5003;58557;50.982;-3.222;2023-09-19T01:53:44;2;2;
70915;PMS5003;58557;50.982;-3.222;2023-09-19T01:56:11;2;1;
70915;PMS5003;58557;50.982;-3.222;2023-09-19T01:58:35;8;5;
70915;PMS5003;58557;50.982;-3.222;2023-09-19T02:01:00;4;3;
70915;PMS5003;58557;50.982;-3.222;2023-09-19T02:03:26;7;3;
70915;PMS5003;58557;50.982;-3.222;2023-09-19T02:05:51;5;4;
70915;PMS5003;58557;50.982;-3.222;2023-09-19T02:08:17;3;2;
70915;PMS5003;58557;50.982;-3.222;2023-09-19T02:10:42;4;4;
70915;PMS5003;58557;50.982;-3.222;2023-09-19T02:13:08;3;2;
70915;PMS5003;58557;50.982;-3.222;2023-09-19T02:15:33;4;1;
70915;PMS5003;58557;50.982;-3.222;2023-09-19T02:17:59;4;2;
70915;PMS5003;58557;50.982;-3.222;2023-09-19T02:20:25;4;3;
70915;PMS5003;58557;50.982;-3.222;2023-09-19T02:22:50;3;2;
70915;PMS5003;58557;50.982;-3.222;2023-09-19T02:25:15;8;5;
70915;PMS5003;58557;50.982;-3.222;2023-09-19T02:27:41;3;1;
70915;PMS5003;58557;50.982;-3.222;2023-09-19T02:30:07;4;2;
70915;PMS5003;58557;50.982;-3.222;2023-09-19T02:32:33;4;3;
70915;PMS5003;58557;50.982;-3.222;2023-09-19T02:34:58;2;2;
70915;PMS5003;58557;50.982;-3.222;2023-09-19T02:37:24;6;6;
70915;PMS5003;58557;50.982;-3.222;2023-09-19T02:39:49;3;1;
70915;PMS5003;58557;50.982;-3.222;2023-09-19T02:42:15;2;2;
70915;PMS5003;58557;50.982;-3.222;2023-09-19T02:44:41;3;2;
70915;PMS5003;58557;50.982;-3.222;2023-09-19T02:47:06;5;2;
70915;PMS5003;58557;50.982;-3.222;2023-09-19T02:49:32;3;1;
70915;PMS5003;58557;50.982;-3.222;2023-09-19T02:51:58;2;1;
70915;PMS5003;58557;50.982;-3.222;2023-09-19T02:54:24;1;1;
70915;PMS5003;58557;50.982;-3.222;2023-09-19T02:56:49;6;6;
70915;PMS5003;58557;50.982;-3.222;2023-09-19T02:59:14;1;1;
70915;PMS5003;58557;50.982;-3.222;2023-09-19T03:01:42;3;3;
70915;PMS5003;58557;50.982;-3.222;2023-09-19T03:04:06;4;1;
70915;PMS5003;58557;50.982;-3.222;2023-09-19T03:06:31;3;1;
70915;PMS5003;58557;50.982;-3.222;2023-09-19T03:08:57;1;1;
70915;PMS5003;58557;50.982;-3.222;2023-09-19T03:11:23;2;1;
70915;PMS5003;58557;50.982;-3.222;2023-09-19T03:13:50;2;2;
70915;PMS5003;58557;50.982;-3.222;2023-09-19T03:16:14;2;2;
70915;PMS5003;58557;50.982;-3.222;2023-09-19T03:18:39;2;2;
70915;PMS5003;58557;50.982;-3.222;2023-09-19T03:21:05;1;1;
70915;PMS5003;58557;50.982;-3.222;2023-09-19T03:23:31;1;1;
70915;PMS5003;58557;50.982;-3.222;2023-09-19T03:25:56;1;1;
70915;PMS5003;58557;50.982;-3.222;2023-09-19T03:28:22;3;1;
70915;PMS5003;58557;50.982;-3.222;2023-09-19T03:33:13;2;2;
70915;PMS5003;58557;50.982;-3.222;2023-09-19T03:35:39;1;1;
70915;PMS5003;58557;50.982;-3.222;2023-09-19T03:38:05;2;2;
70915;PMS5003;58557;50.982;-3.222;2023-09-19T03:40:30;1;1;
70915;PMS5003;58557;50.982;-3.222;2023-09-19T03:42:56;2;1;
70915;PMS5003;58557;50.982;-3.222;2023-09-19T03:45:21;1;1;
70915;PMS5003;58557;50.982;-3.222;2023-09-19T03:47:47;4;3;
70915;PMS5003;58557;50.982;-3.222;2023-09-19T03:50:13;2;1;
70915;PMS5003;58557;50.982;-3.222;2023-09-19T03:52:38;2;1;
70915;PMS5003;58557;50.982;-3.222;2023-09-19T03:55:04;2;1;
70915;PMS5003;58557;50.982;-3.222;2023-09-19T03:57:30;3;2;
70915;PMS5003;58557;50.982;-3.222;2023-09-19T03:59:56;3;3;
70915;PMS5003;58557;50.982;-3.222;2023-09-19T04:02:21;1;1;
70915;PMS5003;58557;50.982;-3.222;2023-09-19T04:04:47;3;2;
70915;PMS5003;58557;50.982;-3.222;2023-09-19T04:07:12;2;1;
70915;PMS5003;58557;50.982;-3.222;2023-09-19T04:09:38;3;2;
70915;PMS5003;58557;50.982;-3.222;2023-09-19T04:12:04;1;1;
70915;PMS5003;58557;50.982;-3.222;2023-09-19T04:14:29;2;2;
70915;PMS5003;58557;50.982;-3.222;2023-09-19T04:16:55;2;2;
70915;PMS5003;58557;50.982;-3.222;2023-09-19T04:19:20;5;2;
70915;PMS5003;58557;50.982;-3.222;2023-09-19T04:21:46;3;3;
70915;PMS5003;58557;50.982;-3.222;2023-09-19T04:24:12;3;1;
70915;PMS5003;58557;50.982;-3.222;2023-09-19T04:26:37;2;1;
70915;PMS5003;58557;50.982;-3.222;2023-09-19T04:29:02;1;1;
70915;PMS5003;58557;50.982;-3.222;2023-09-19T04:31:28;1;0;
70915;PMS5003;58557;50.982;-3.222;2023-09-19T04:33:53;4;4;
70915;PMS5003;58557;50.982;-3.222;2023-09-19T04:36:19;3;3;
70915;PMS5003;58557;50.982;-3.222;2023-09-19T04:38:44;5;3;
70915;PMS5003;58557;50.982;-3.222;2023-09-19T04:41:10;2;2;
70915;PMS5003;58557;50.982;-3.222;2023-09-19T04:43:36;3;3;
70915;PMS5003;58557;50.982;-3.222;2023-09-19T04:46:01;7;4;
70915;PMS5003;58557;50.982;-3.222;2023-09-19T04:48:27;2;2;
70915;PMS5003;58557;50.982;-3.222;2023-09-19T04:50:52;8;5;
70915;PMS5003;58557;50.982;-3.222;2023-09-19T04:53:18;5;4;
70915;PMS5003;58557;50.982;-3.222;2023-09-19T04:55:43;6;6;
70915;PMS5003;58557;50.982;-3.222;2023-09-19T04:58:09;4;4;
70915;PMS5003;58557;50.982;-3.222;2023-09-19T05:00:35;4;3;
70915;PMS5003;58557;50.982;-3.222;2023-09-19T05:03:00;4;3;
70915;PMS5003;58557;50.982;-3.222;2023-09-19T05:05:26;3;2;
70915;PMS5003;58557;50.982;-3.222;2023-09-19T05:07:52;4;3;
70915;PMS5003;58557;50.982;-3.222;2023-09-19T05:10:17;4;4;
70915;PMS5003;58557;50.982;-3.222;2023-09-19T05:12:42;10;9;
70915;PMS5003;58557;50.982;-3.222;2023-09-19T05:15:08;6;4;
70915;PMS5003;58557;50.982;-3.222;2023-09-19T05:17:34;4;4;
70915;PMS5003;58557;50.982;-3.222;2023-09-19T05:19:59;7;5;
70915;PMS5003;58557;50.982;-3.222;2023-09-19T05:22:26;7;5;
70915;PMS5003;58557;50.982;-3.222;2023-09-19T05:24:51;8;6;
70915;PMS5003;58557;50.982;-3.222;2023-09-19T05:27:16;6;5;
70915;PMS5003;58557;50.982;-3.222;2023-09-19T05:29:42;10;8;
70915;PMS5003;58557;50.982;-3.222;2023-09-19T05:32:07;4;3;
70915;PMS5003;58557;50.982;-3.222;2023-09-19T05:34:32;7;5;
70915;PMS5003;58557;50.982;-3.222;2023-09-19T05:36:58;8;6;
70915;PMS5003;58557;50.982;-3.222;2023-09-19T05:39:24;4;4;
70915;PMS5003;58557;50.982;-3.222;2023-09-19T05:41:49;6;5;
70915;PMS5003;58557;50.982;-3.222;2023-09-19T05:44:15;5;5;
70915;PMS5003;58557;50.982;-3.222;2023-09-19T05:46:40;6;6;
70915;PMS5003;58557;50.982;-3.222;2023-09-19T05:49:06;5;5;
70915;PMS5003;58557;50.982;-3.222;2023-09-19T05:51:31;9;6;
70915;PMS5003;58557;50.982;-3.222;2023-09-19T05:53:57;9;8;
70915;PMS5003;58557;50.982;-3.222;2023-09-19T05:56:22;8;4;
70915;PMS5003;58557;50.982;-3.222;2023-09-19T05:58:48;12;8;
70915;PMS5003;58557;50.982;-3.222;2023-09-19T06:01:14;8;4;
70915;PMS5003;58557;50.982;-3.222;2023-09-19T06:03:39;7;6;
70915;PMS5003;58557;50.982;-3.222;2023-09-19T06:06:05;10;7;
70915;PMS5003;58557;50.982;-3.222;2023-09-19T06:08:30;11;10;
70915;PMS5003;58557;50.982;-3.222;2023-09-19T06:10:56;6;5;
70915;PMS5003;58557;50.982;-3.222;2023-09-19T06:13:22;16;10;
70915;PMS5003;58557;50.982;-3.222;2023-09-19T06:15:47;13;9;
70915;PMS5003;58557;50.982;-3.222;2023-09-19T06:18:13;10;9;
70915;PMS5003;58557;50.982;-3.222;2023-09-19T06:20:38;8;6;
70915;PMS5003;58557;50.982;-3.222;2023-09-19T06:23:04;13;13;
70915;PMS5003;58557;50.982;-3.222;2023-09-19T06:25:35;13;9;
70915;PMS5003;58557;50.982;-3.222;2023-09-19T06:27:55;10;7;
70915;PMS5003;58557;50.982;-3.222;2023-09-19T06:30:21;13;10;
70915;PMS5003;58557;50.982;-3.222;2023-09-19T06:32:45;18;10;
70915;PMS5003;58557;50.982;-3.222;2023-09-19T06:35:11;16;11;
70915;PMS5003;58557;50.982;-3.222;2023-09-19T06:37:37;11;10;
70915;PMS5003;58557;50.982;-3.222;2023-09-19T06:40:03;13;8;
70915;PMS5003;58557;50.982;-3.222;2023-09-19T06:42:28;14;9;
70915;PMS5003;58557;50.982;-3.222;2023-09-19T06:44:53;14;10;
70915;PMS5003;58557;50.982;-3.222;2023-09-19T06:47:19;9;6;
70915;PMS5003;58557;50.982;-3.222;2023-09-19T06:49:44;10;10;
70915;PMS5003;58557;50.982;-3.222;2023-09-19T06:52:10;13;9;
70915;PMS5003;58557;50.982;-3.222;2023-09-19T06:54:36;12;7;
70915;PMS5003;58557;50.982;-3.222;2023-09-19T06:57:01;8;8;
70915;PMS5003;58557;50.982;-3.222;2023-09-19T06:59:27;9;7;
70915;PMS5003;58557;50.982;-3.222;2023-09-19T07:01:53;13;8;
70915;PMS5003;58557;50.982;-3.222;2023-09-19T07:04:18;11;7;
70915;PMS5003;58557;50.982;-3.222;2023-09-19T07:06:43;14;14;
70915;PMS5003;58557;50.982;-3.222;2023-09-19T07:09:09;21;15;
70915;PMS5003;58557;50.982;-3.222;2023-09-19T07:11:36;10;8;
70915;PMS5003;58557;50.982;-3.222;2023-09-19T07:14:00;20;12;
70915;PMS5003;58557;50.982;-3.222;2023-09-19T07:16:25;16;8;
70915;PMS5003;58557;50.982;-3.222;2023-09-19T07:18:50;9;8;
70915;PMS5003;58557;50.982;-3.222;2023-09-19T07:21:16;13;11;
70915;PMS5003;58557;50.982;-3.222;2023-09-19T07:23:41;15;11;
70915;PMS5003;58557;50.982;-3.222;2023-09-19T07:26:06;13;8;
70915;PMS5003;58557;50.982;-3.222;2023-09-19T07:28:32;16;12;
70915;PMS5003;58557;50.982;-3.222;2023-09-19T07:30:57;15;10;
70915;PMS5003;58557;50.982;-3.222;2023-09-19T07:33:22;9;8;
70915;PMS5003;58557;50.982;-3.222;2023-09-19T07:35:48;12;8;
70915;PMS5003;58557;50.982;-3.222;2023-09-19T07:38:13;13;11;
70915;PMS5003;58557;50.982;-3.222;2023-09-19T07:40:38;11;11;
70915;PMS5003;58557;50.982;-3.222;2023-09-19T07:43:03;10;8;
70915;PMS5003;58557;50.982;-3.222;2023-09-19T07:45:29;11;8;
70915;PMS5003;58557;50.982;-3.222;2023-09-19T07:47:54;12;10;
70915;PMS5003;58557;50.982;-3.222;2023-09-19T07:50:19;14;11;
70915;PMS5003;58557;50.982;-3.222;2023-09-19T07:52:45;12;7;
70915;PMS5003;58557;50.982;-3.222;2023-09-19T07:55:10;11;10;
70915;PMS5003;58557;50.982;-3.222;2023-09-19T07:57:35;12;10;
70915;PMS5003;58557;50.982;-3.222;2023-09-19T08:00:00;16;10;
70915;PMS5003;58557;50.982;-3.222;2023-09-19T08:02:25;14;12;
70915;PMS5003;58557;50.982;-3.222;2023-09-19T08:04:51;11;11;
70915;PMS5003;58557;50.982;-3.222;2023-09-19T08:07:16;12;8;
70915;PMS5003;58557;50.982;-3.222;2023-09-19T08:09:41;13;11;
70915;PMS5003;58557;50.982;-3.222;2023-09-19T08:12:07;15;12;
70915;PMS5003;58557;50.982;-3.222;2023-09-19T08:14:32;9;7;
70915;PMS5003;58557;50.982;-3.222;2023-09-19T08:16:57;7;7;
70915;PMS5003;58557;50.982;-3.222;2023-09-19T08:19:23;7;7;
70915;PMS5003;58557;50.982;-3.222;2023-09-19T08:21:48;8;6;
70915;PMS5003;58557;50.982;-3.222;2023-09-19T08:24:14;9;7;
70915;PMS5003;58557;50.982;-3.222;2023-09-19T08:26:39;11;9;
70915;PMS5003;58557;50.982;-3.222;2023-09-19T08:29:05;14;10;
70915;PMS5003;58557;50.982;-3.222;2023-09-19T08:31:30;7;5;
70915;PMS5003;58557;50.982;-3.222;2023-09-19T08:33:56;8;6;
70915;PMS5003;58557;50.982;-3.222;2023-09-19T08:36:21;9;9;
70915;PMS5003;58557;50.982;-3.222;2023-09-19T08:38:46;8;7;
70915;PMS5003;58557;50.982;-3.222;2023-09-19T08:41:12;8;6;
70915;PMS5003;58557;50.982;-3.222;2023-09-19T08:43:37;7;5;
70915;PMS5003;58557;50.982;-3.222;2023-09-19T08:46:06;8;5;
70915;PMS5003;58557;50.982;-3.222;2023-09-19T08:48:28;6;6;
70915;PMS5003;58557;50.982;-3.222;2023-09-19T08:50:55;10;6;
70915;PMS5003;58557;50.982;-3.222;2023-09-19T08:53:21;9;5;
70915;PMS5003;58557;50.982;-3.222;2023-09-19T08:55:45;8;7;
70915;PMS5003;58557;50.982;-3.222;2023-09-19T08:58:11;8;5;
70915;PMS5003;58557;50.982;-3.222;2023-09-19T09:00:37;6;5;
70915;PMS5003;58557;50.982;-3.222;2023-09-19T09:03:03;3;2;
70915;PMS5003;58557;50.982;-3.222;2023-09-19T09:05:28;4;3;
70915;PMS5003;58557;50.982;-3.222;2023-09-19T09:07:53;6;3;
70915;PMS5003;58557;50.982;-3.222;2023-09-19T09:10:19;8;7;
70915;PMS5003;58557;50.982;-3.222;2023-09-19T09:12:45;7;4;
70915;PMS5003;58557;50.982;-3.222;2023-09-19T09:15:11;9;7;
70915;PMS5003;58557;50.982;-3.222;2023-09-19T09:17:36;4;3;
70915;PMS5003;58557;50.982;-3.222;2023-09-19T09:20:01;5;4;
70915;PMS5003;58557;50.982;-3.222;2023-09-19T09:22:27;5;3;
70915;PMS5003;58557;50.982;-3.222;2023-09-19T09:24:53;2;2;
70915;PMS5003;58557;50.982;-3.222;2023-09-19T09:27:18;3;3;
70915;PMS5003;58557;50.982;-3.222;2023-09-19T09:29:44;3;3;
70915;PMS5003;58557;50.982;-3.222;2023-09-19T09:32:18;3;3;
70915;PMS5003;58557;50.982;-3.222;2023-09-19T09:34:35;3;1;
70915;PMS5003;58557;50.982;-3.222;2023-09-19T09:37:01;3;3;
70915;PMS5003;58557;50.982;-3.222;2023-09-19T09:39:29;1;1;
70915;PMS5003;58557;50.982;-3.222;2023-09-19T09:41:52;3;1;
70915;PMS5003;58557;50.982;-3.222;2023-09-19T09:44:17;4;2;
70915;PMS5003;58557;50.982;-3.222;2023-09-19T09:46:43;2;1;
70915;PMS5003;58557;50.982;-3.222;2023-09-19T09:49:10;1;1;
70915;PMS5003;58557;50.982;-3.222;2023-09-19T09:51:34;1;0;
70915;PMS5003;58557;50.982;-3.222;2023-09-19T09:56:25;1;1;
70915;PMS5003;58557;50.982;-3.222;2023-09-19T09:58:51;2;1;
70915;PMS5003;58557;50.982;-3.222;2023-09-19T10:01:17;1;1;
70915;PMS5003;58557;50.982;-3.222;2023-09-19T10:03:43;0;0;
70915;PMS5003;58557;50.982;-3.222;2023-09-19T10:06:09;0;0;
70915;PMS5003;58557;50.982;-3.222;2023-09-19T10:08:33;0;0;
70915;PMS5003;58557;50.982;-3.222;2023-09-19T10:10:59;0;0;
70915;PMS5003;58557;50.982;-3.222;2023-09-19T10:13:25;1;0;
70915;PMS5003;58557;50.982;-3.222;2023-09-19T10:15:51;0;0;
70915;PMS5003;58557;50.982;-3.222;2023-09-19T10:18:16;1;0;
70915;PMS5003;58557;50.982;-3.222;2023-09-19T10:20:42;0;0;
70915;PMS5003;58557;50.982;-3.222;2023-09-19T10:23:08;0;0;
70915;PMS5003;58557;50.982;-3.222;2023-09-19T10:25:33;1;1;
70915;PMS5003;58557;50.982;-3.222;2023-09-19T10:27:59;1;1;
70915;PMS5003;58557;50.982;-3.222;2023-09-19T10:30:24;0;0;
70915;PMS5003;58557;50.982;-3.222;2023-09-19T10:32:53;0;0;
70915;PMS5003;58557;50.982;-3.222;2023-09-19T10:35:15;0;0;
70915;PMS5003;58557;50.982;-3.222;2023-09-19T10:37:41;0;0;
70915;PMS5003;58557;50.982;-3.222;2023-09-19T10:40:07;2;1;
70915;PMS5003;58557;50.982;-3.222;2023-09-19T10:42:32;1;1;
70915;PMS5003;58557;50.982;-3.222;2023-09-19T10:44:58;2;1;
70915;PMS5003;58557;50.982;-3.222;2023-09-19T10:47:23;0;0;
70915;PMS5003;58557;50.982;-3.222;2023-09-19T10:49:49;0;0;
70915;PMS5003;58557;50.982;-3.222;2023-09-19T10:52:15;1;1;
70915;PMS5003;58557;50.982;-3.222;2023-09-19T10:54:41;2;2;
70915;PMS5003;58557;50.982;-3.222;2023-09-19T10:57:06;0;0;
70915;PMS5003;58557;50.982;-3.222;2023-09-19T10:59:31;2;1;
70915;PMS5003;58557;50.982;-3.222;2023-09-19T11:01:57;7;7;
70915;PMS5003;58557;50.982;-3.222;2023-09-19T11:04:23;4;3;
70915;PMS5003;58557;50.982;-3.222;2023-09-19T11:09:13;2;2;
70915;PMS5003;58557;50.982;-3.222;2023-09-19T11:11:39;1;1;
70915;PMS5003;58557;50.982;-3.222;2023-09-19T11:16:30;3;2;
70915;PMS5003;58557;50.982;-3.222;2023-09-19T11:18:56;2;2;
70915;PMS5003;58557;50.982;-3.222;2023-09-19T11:23:50;1;1;
70915;PMS5003;58557;50.982;-3.222;2023-09-19T11:28:38;0;0;
70915;PMS5003;58557;50.982;-3.222;2023-09-19T11:33:29;1;1;
70915;PMS5003;58557;50.982;-3.222;2023-09-19T11:36:00;1;1;
70915;PMS5003;58557;50.982;-3.222;2023-09-19T11:40:45;1;1;
70915;PMS5003;58557;50.982;-3.222;2023-09-19T11:48:02;2;2;
70915;PMS5003;58557;50.982;-3.222;2023-09-19T11:50:28;1;0;
70915;PMS5003;58557;50.982;-3.222;2023-09-19T11:52:53;1;1;
70915;PMS5003;58557;50.982;-3.222;2023-09-19T11:55:19;1;1;
70915;PMS5003;58557;50.982;-3.222;2023-09-19T11:57:44;2;2;
70915;PMS5003;58557;50.982;-3.222;2023-09-19T12:02:37;5;2;
70915;PMS5003;58557;50.982;-3.222;2023-09-19T12:05:01;2;1;
70915;PMS5003;58557;50.982;-3.222;2023-09-19T12:07:27;5;4;
70915;PMS5003;58557;50.982;-3.222;2023-09-19T12:10:04;6;4;
70915;PMS5003;58557;50.982;-3.222;2023-09-19T12:12:19;2;2;
70915;PMS5003;58557;50.982;-3.222;2023-09-19T12:14:47;5;4;
70915;PMS5003;58557;50.982;-3.222;2023-09-19T12:17:09;1;1;
70915;PMS5003;58557;50.982;-3.222;2023-09-19T12:19:34;2;2;
70915;PMS5003;58557;50.982;-3.222;2023-09-19T12:22:00;6;4;
70915;PMS5003;58557;50.982;-3.222;2023-09-19T12:24:26;2;2;
70915;PMS5003;58557;50.982;-3.222;2023-09-19T12:26:51;5;4;
70915;PMS5003;58557;50.982;-3.222;2023-09-19T12:29:17;4;4;
70915;PMS5003;58557;50.982;-3.222;2023-09-19T12:31:49;7;4;
70915;PMS5003;58557;50.982;-3.222;2023-09-19T12:34:07;6;3;
70915;PMS5003;58557;50.982;-3.222;2023-09-19T12:36:33;2;2;
70915;PMS5003;58557;50.982;-3.222;2023-09-19T12:38:58;6;3;
70915;PMS5003;58557;50.982;-3.222;2023-09-19T12:41:23;7;7;
70915;PMS5003;58557;50.982;-3.222;2023-09-19T12:43:49;6;3;
70915;PMS5003;58557;50.982;-3.222;2023-09-19T12:46:14;5;4;
70915;PMS5003;58557;50.982;-3.222;2023-09-19T12:48:39;4;3;
70915;PMS5003;58557;50.982;-3.222;2023-09-19T12:51:05;5;4;
70915;PMS5003;58557;50.982;-3.222;2023-09-19T12:53:31;5;5;
70915;PMS5003;58557;50.982;-3.222;2023-09-19T12:55:59;5;4;
70915;PMS5003;58557;50.982;-3.222;2023-09-19T12:58:21;5;5;
70915;PMS5003;58557;50.982;-3.222;2023-09-19T13:00:47;5;4;
70915;PMS5003;58557;50.982;-3.222;2023-09-19T13:03:14;4;4;
70915;PMS5003;58557;50.982;-3.222;2023-09-19T13:10:28;4;4;
70915;PMS5003;58557;50.982;-3.222;2023-09-19T13:12:54;6;4;
70915;PMS5003;58557;50.982;-3.222;2023-09-19T13:15:19;6;3;
70915;PMS5003;58557;50.982;-3.222;2023-09-19T13:17:46;4;3;
70915;PMS5003;58557;50.982;-3.222;2023-09-19T13:22:36;7;4;
70915;PMS5003;58557;50.982;-3.222;2023-09-19T13:25:02;3;3;
70915;PMS5003;58557;50.982;-3.222;2023-09-19T13:27:27;3;3;
70915;PMS5003;58557;50.982;-3.222;2023-09-19T13:29:52;1;1;
70915;PMS5003;58557;50.982;-3.222;2023-09-19T13:32:18;5;3;
70915;PMS5003;58557;50.982;-3.222;2023-09-19T13:34:43;3;2;
70915;PMS5003;58557;50.982;-3.222;2023-09-19T13:37:09;4;2;
70915;PMS5003;58557;50.982;-3.222;2023-09-19T13:39:34;4;4;
70915;PMS5003;58557;50.982;-3.222;2023-09-19T13:42:00;5;4;
70915;PMS5003;58557;50.982;-3.222;2023-09-19T13:44:25;3;3;
70915;PMS5003;58557;50.982;-3.222;2023-09-19T13:46:51;3;3;
70915;PMS5003;58557;50.982;-3.222;2023-09-19T13:49:16;3;3;
70915;PMS5003;58557;50.982;-3.222;2023-09-19T13:51:42;5;3;
70915;PMS5003;58557;50.982;-3.222;2023-09-19T13:54:07;3;3;
70915;PMS5003;58557;50.982;-3.222;2023-09-19T13:56:33;5;3;
70915;PMS5003;58557;50.982;-3.222;2023-09-19T13:58:58;5;3;
70915;PMS5003;58557;50.982;-3.222;2023-09-19T14:01:24;1;1;
70915;PMS5003;58557;50.982;-3.222;2023-09-19T14:03:50;1;1;
70915;PMS5003;58557;50.982;-3.222;2023-09-19T14:06:15;1;1;
70915;PMS5003;58557;50.982;-3.222;2023-09-19T14:08:41;2;2;
70915;PMS5003;58557;50.982;-3.222;2023-09-19T14:11:06;0;0;
70915;PMS5003;58557;50.982;-3.222;2023-09-19T14:13:32;2;1;
70915;PMS5003;58557;50.982;-3.222;2023-09-19T14:15:57;1;1;
70915;PMS5003;58557;50.982;-3.222;2023-09-19T14:18:23;0;0;
70915;PMS5003;58557;50.982;-3.222;2023-09-19T14:20:48;0;0;
70915;PMS5003;58557;50.982;-3.222;2023-09-19T14:23:14;0;0;
70915;PMS5003;58557;50.982;-3.222;2023-09-19T14:25:39;2;1;
70915;PMS5003;58557;50.982;-3.222;2023-09-19T14:28:05;4;1;
70915;PMS5003;58557;50.982;-3.222;2023-09-19T14:30:31;0;0;
70915;PMS5003;58557;50.982;-3.222;2023-09-19T14:32:56;0;0;
70915;PMS5003;58557;50.982;-3.222;2023-09-19T14:35:21;2;2;
70915;PMS5003;58557;50.982;-3.222;2023-09-19T14:37:47;1;1;
70915;PMS5003;58557;50.982;-3.222;2023-09-19T14:40:13;1;1;
70915;PMS5003;58557;50.982;-3.222;2023-09-19T14:42:39;1;1;
70915;PMS5003;58557;50.982;-3.222;2023-09-19T14:45:04;0;0;
70915;PMS5003;58557;50.982;-3.222;2023-09-19T14:47:30;1;1;
70915;PMS5003;58557;50.982;-3.222;2023-09-19T14:49:55;1;1;
70915;PMS5003;58557;50.982;-3.222;2023-09-19T14:52:20;2;2;
70915;PMS5003;58557;50.982;-3.222;2023-09-19T14:54:46;1;1;
70915;PMS5003;58557;50.982;-3.222;2023-09-19T14:57:11;1;1;
70915;PMS5003;58557;50.982;-3.222;2023-09-19T14:59:37;3;2;
70915;PMS5003;58557;50.982;-3.222;2023-09-19T15:02:02;3;2;
70915;PMS5003;58557;50.982;-3.222;2023-09-19T15:04:28;2;2;
70915;PMS5003;58557;50.982;-3.222;2023-09-19T15:06:53;0;0;
70915;PMS5003;58557;50.982;-3.222;2023-09-19T15:09:18;1;0;
70915;PMS5003;58557;50.982;-3.222;2023-09-19T15:11:43;1;1;
70915;PMS5003;58557;50.982;-3.222;2023-09-19T15:14:09;1;1;
70915;PMS5003;58557;50.982;-3.222;2023-09-19T15:16:34;4;1;
70915;PMS5003;58557;50.982;-3.222;2023-09-19T15:19:00;2;2;
70915;PMS5003;58557;50.982;-3.222;2023-09-19T15:21:26;2;1;
70915;PMS5003;58557;50.982;-3.222;2023-09-19T15:23:52;1;1;
70915;PMS5003;58557;50.982;-3.222;2023-09-19T15:26:18;1;1;
70915;PMS5003;58557;50.982;-3.222;2023-09-19T15:28:43;3;0;
70915;PMS5003;58557;50.982;-3.222;2023-09-19T15:31:08;5;4;
70915;PMS5003;58557;50.982;-3.222;2023-09-19T15:33:34;3;2;
70915;PMS5003;58557;50.982;-3.222;2023-09-19T15:36:01;0;0;
70915;PMS5003;58557;50.982;-3.222;2023-09-19T15:38:24;1;1;
70915;PMS5003;58557;50.982;-3.222;2023-09-19T15:40:50;1;1;
70915;PMS5003;58557;50.982;-3.222;2023-09-19T15:43:15;3;2;
70915;PMS5003;58557;50.982;-3.222;2023-09-19T15:45:41;3;2;
70915;PMS5003;58557;50.982;-3.222;2023-09-19T15:48:06;1;1;
70915;PMS5003;58557;50.982;-3.222;2023-09-19T15:50:32;0;0;
70915;PMS5003;58557;50.982;-3.222;2023-09-19T15:52:57;1;1;
70915;PMS5003;58557;50.982;-3.222;2023-09-19T15:55:23;5;1;
70915;PMS5003;58557;50.982;-3.222;2023-09-19T15:57:48;1;1;
70915;PMS5003;58557;50.982;-3.222;2023-09-19T16:00:16;1;1;
70915;PMS5003;58557;50.982;-3.222;2023-09-19T16:02:39;3;1;
70915;PMS5003;58557;50.982;-3.222;2023-09-19T16:05:05;2;2;
70915;PMS5003;58557;50.982;-3.222;2023-09-19T16:07:30;0;0;
70915;PMS5003;58557;50.982;-3.222;2023-09-19T16:09:56;2;2;
70915;PMS5003;58557;50.982;-3.222;2023-09-19T16:12:21;7;7;
70915;PMS5003;58557;50.982;-3.222;2023-09-19T16:14:46;4;2;
70915;PMS5003;58557;50.982;-3.222;2023-09-19T16:17:12;2;2;
70915;PMS5003;58557;50.982;-3.222;2023-09-19T16:19:38;1;1;
70915;PMS5003;58557;50.982;-3.222;2023-09-19T16:22:03;2;2;
70915;PMS5003;58557;50.982;-3.222;2023-09-19T16:24:29;3;3;
70915;PMS5003;58557;50.982;-3.222;2023-09-19T16:26:54;2;2;
70915;PMS5003;58557;50.982;-3.222;2023-09-19T16:29:20;5;2;
70915;PMS5003;58557;50.982;-3.222;2023-09-19T16:31:45;1;1;
70915;PMS5003;58557;50.982;-3.222;2023-09-19T16:34:13;0;0;
70915;PMS5003;58557;50.982;-3.222;2023-09-19T16:36:36;3;1;
70915;PMS5003;58557;50.982;-3.222;2023-09-19T16:39:02;0;0;
70915;PMS5003;58557;50.982;-3.222;2023-09-19T16:41:28;2;1;
70915;PMS5003;58557;50.982;-3.222;2023-09-19T16:43:53;0;0;
70915;PMS5003;58557;50.982;-3.222;2023-09-19T16:46:19;1;1;
70915;PMS5003;58557;50.982;-3.222;2023-09-19T16:48:45;2;2;
70915;PMS5003;58557;50.982;-3.222;2023-09-19T16:51:10;4;1;
70915;PMS5003;58557;50.982;-3.222;2023-09-19T16:53:36;2;2;
70915;PMS5003;58557;50.982;-3.222;2023-09-19T16:56:01;2;2;
70915;PMS5003;58557;50.982;-3.222;2023-09-19T16:58:27;3;2;